Time;durP1;ratioP1;P1;durP2;ratioP2;P2;SDS_P1;SDS_P2;PMS_P1;PMS_P2;Temp;Humidity;BMP_temperature;BMP_pressure;BME280_temperature;BME280_humidity;BME280_pressure;Samples;Min_cycle;Max_cycle;Signal;HPM_P1;HPM_P2
2022/08/05 00:01:12;;;;;;;;;;;24.00;72.30;;;;;;5117655;28;19911;-75
2022/08/05 00:03:38;;;;;;;;;;;24.00;72.30;;;;;;5117542;28;19950;-74
2022/08/05 00:06:03;;;;;;;;;;;24.00;72.30;;;;;;5117787;28;19951;-75
2022/08/05 00:08:29;;;;;;;;;;;24.00;72.40;;;;;;5117664;28;19912;-75
2022/08/05 00:10:54;;;;;;;;;;;24.00;72.30;;;;;;5117459;28;19915;-74
2022/08/05 00:13:20;;;;;;;;;;;24.00;72.40;;;;;;5117780;28;19908;-75
2022/08/05 00:15:45;;;;;;;;;;;24.00;72.40;;;;;;5117530;28;20373;-75
2022/08/05 00:18:11;;;;;;;;;;;24.00;72.90;;;;;;5117297;28;20374;-74
2022/08/05 00:20:36;;;;;;;;;;;24.00;72.30;;;;;;5116903;28;19960;-72
2022/08/05 00:23:02;;;;;;;;;;;24.00;72.30;;;;;;5117330;28;19912;-75
2022/08/05 00:25:27;;;;;;;;;;;22.40;71.50;;;;;;5115846;28;19912;-75
2022/08/05 00:27:53;;;;;;;;;;;24.00;72.30;;;;;;5117211;28;19998;-74
2022/08/05 00:30:19;;;;;;;;;;;24.00;72.30;;;;;;5117702;28;19915;-74
2022/08/05 00:32:44;;;;;;;;;;;23.90;72.30;;;;;;5117095;28;19908;-74
2022/08/05 00:35:10;;;;;;;;;;;24.00;72.40;;;;;;5117159;28;19915;-78
2022/08/05 00:37:35;;;;;;;;;;;24.00;72.50;;;;;;5116900;28;19924;-74
2022/08/05 00:40:01;;;;;;;;;;;24.00;72.50;;;;;;5115622;28;20003;-74
2022/08/05 00:42:34;;;;;;;;;;;24.00;72.40;;;;;;5116545;28;19969;-74
2022/08/05 00:45:00;;;;;;;;;;;24.00;72.40;;;;;;5116770;28;20006;-74
2022/08/05 00:47:25;;;;;;;;;;;24.10;72.40;;;;;;5116649;28;19973;-75
2022/08/05 00:49:51;;;;;;;;;;;24.00;72.30;;;;;;5116984;28;19938;-74
2022/08/05 00:52:16;;;;;;;;;;;24.10;72.30;;;;;;5116638;28;19912;-74
2022/08/05 00:54:42;;;;;;;;;;;24.00;72.20;;;;;;5116601;28;19908;-74
2022/08/05 00:57:07;;;;;;;;;;;24.00;72.40;;;;;;5116173;28;20006;-74
2022/08/05 00:59:33;;;;;;;;;;;24.10;72.30;;;;;;5116603;28;19922;-73
2022/08/05 01:01:58;;;;;;;;;;;24.10;72.30;;;;;;5115784;28;20010;-75
2022/08/05 01:04:24;;;;;;;;;;;24.10;72.30;;;;;;5116296;28;19956;-75
2022/08/05 01:06:49;;;;;;;;;;;24.10;72.30;;;;;;5116143;28;19912;-75
2022/08/05 01:09:15;;;;;;;;;;;24.10;72.80;;;;;;5116049;28;19907;-74
2022/08/05 01:11:42;;;;;;;;;;;24.00;72.30;;;;;;5115120;28;19908;-75
2022/08/05 01:14:13;;;;;;;;;;;24.00;72.50;;;;;;5114776;28;19947;-75
2022/08/05 01:16:41;;;;;;;;;;;24.00;72.30;;;;;;5115143;28;19961;-75
2022/08/05 01:19:22;;;;;;;;;;;24.00;72.40;;;;;;5115956;28;19991;-73
2022/08/05 01:21:50;;;;;;;;;;;24.00;72.40;;;;;;5115777;28;19957;-74
2022/08/05 01:24:31;;;;;;;;;;;24.00;72.40;;;;;;5116082;28;19923;-74
2022/08/05 01:27:06;;;;;;;;;;;23.90;72.50;;;;;;5116047;28;19912;-75
2022/08/05 01:29:35;;;;;;;;;;;23.90;72.50;;;;;;5115881;28;19915;-74
2022/08/05 01:32:06;;;;;;;;;;;23.90;72.50;;;;;;5115929;28;19907;-75
2022/08/05 01:34:41;;;;;;;;;;;23.90;72.60;;;;;;5115988;28;19934;-75
2022/08/05 01:37:11;;;;;;;;;;;23.90;72.60;;;;;;5115785;28;20406;-74
2022/08/05 01:39:37;;;;;;;;;;;23.90;72.70;;;;;;5115808;28;19918;-74
2022/08/05 01:42:04;;;;;;;;;;;23.80;72.70;;;;;;5115507;28;19911;-74
2022/08/05 01:44:30;;;;;;;;;;;23.80;72.80;;;;;;5115724;28;19916;-74
2022/08/05 01:46:57;;;;;;;;;;;23.80;72.90;;;;;;5114073;28;19918;-74
2022/08/05 01:49:25;;;;;;;;;;;23.80;72.90;;;;;;5115661;28;20362;-74
2022/08/05 01:51:53;;;;;;;;;;;23.80;73.00;;;;;;5114320;28;19953;-74
2022/08/05 01:54:20;;;;;;;;;;;23.70;73.10;;;;;;5114226;28;19908;-74
2022/08/05 01:56:48;;;;;;;;;;;23.70;73.00;;;;;;5115267;28;19915;-75
2022/08/05 01:59:15;;;;;;;;;;;23.70;73.70;;;;;;5115369;28;20003;-74
2022/08/05 02:01:41;;;;;;;;;;;23.70;73.20;;;;;;5115517;28;20251;-74
2022/08/05 02:04:08;;;;;;;;;;;23.70;73.20;;;;;;5115243;28;20319;-72
2022/08/05 02:06:33;;;;;;;;;;;23.70;73.20;;;;;;5115209;28;19908;-75
2022/08/05 02:08:59;;;;;;;;;;;23.70;73.50;;;;;;5114264;28;19908;-74
2022/08/05 02:11:25;;;;;;;;;;;23.70;73.20;;;;;;5115220;28;19908;-74
2022/08/05 02:14:20;;;;;;;;;;;23.70;73.20;;;;;;5115053;28;20358;-74
2022/08/05 02:16:49;;;;;;;;;;;23.80;73.30;;;;;;5101208;28;19911;-74
2022/08/05 02:19:14;;;;;;;;;;;23.80;73.30;;;;;;5115452;28;19912;-74
2022/08/05 02:21:42;;;;;;;;;;;23.80;73.30;;;;;;5114663;28;20258;-74
2022/08/05 02:24:11;;;;;;;;;;;23.80;73.30;;;;;;5115161;28;19918;-74
2022/08/05 02:26:40;;;;;;;;;;;23.80;73.40;;;;;;5114999;28;19958;-74
2022/08/05 02:29:08;;;;;;;;;;;23.80;73.40;;;;;;5114911;28;19912;-75
2022/08/05 02:31:34;;;;;;;;;;;23.80;73.40;;;;;;5115085;28;19908;-75
2022/08/05 02:34:02;;;;;;;;;;;23.80;73.40;;;;;;5114753;28;19960;-75
2022/08/05 02:36:29;;;;;;;;;;;23.80;73.40;;;;;;5114297;28;19947;-75
2022/08/05 02:38:55;;;;;;;;;;;23.80;73.40;;;;;;5114555;28;19908;-75
2022/08/05 02:41:22;;;;;;;;;;;23.80;73.70;;;;;;5114686;28;19919;-75
2022/08/05 02:43:48;;;;;;;;;;;23.80;73.70;;;;;;5114753;28;19916;-74
2022/08/05 02:46:14;;;;;;;;;;;23.80;73.70;;;;;;5114965;28;19953;-75
2022/08/05 02:48:40;;;;;;;;;;;23.70;73.70;;;;;;5114738;28;19955;-74
2022/08/05 02:51:06;;;;;;;;;;;23.70;73.70;;;;;;5114453;28;19965;-74
2022/08/05 02:53:32;;;;;;;;;;;23.70;73.90;;;;;;5114578;28;19908;-74
2022/08/05 02:55:58;;;;;;;;;;;23.70;73.80;;;;;;5114826;28;20273;-74
2022/08/05 02:58:24;;;;;;;;;;;23.70;73.80;;;;;;5114813;28;19908;-76
2022/08/05 03:00:51;;;;;;;;;;;23.70;73.80;;;;;;5114365;28;19912;-75
2022/08/05 03:03:18;;;;;;;;;;;23.80;74.00;;;;;;5113141;28;19962;-75
2022/08/05 03:05:44;;;;;;;;;;;23.80;73.90;;;;;;5114307;28;19907;-75
2022/08/05 03:08:11;;;;;;;;;;;23.80;73.80;;;;;;5114210;28;19908;-75
2022/08/05 03:10:36;;;;;;;;;;;23.80;73.80;;;;;;5114389;28;20367;-75
2022/08/05 03:13:11;;;;;;;;;;;23.90;73.80;;;;;;5113474;28;19966;-74
2022/08/05 03:15:37;;;;;;;;;;;23.90;73.80;;;;;;5114510;28;20274;-73
2022/08/05 03:18:02;;;;;;;;;;;23.90;73.80;;;;;;5114435;28;19914;-75
2022/08/05 03:20:28;;;;;;;;;;;23.90;73.70;;;;;;5115498;28;19917;-75
2022/08/05 03:22:54;;;;;;;;;;;23.90;73.70;;;;;;5118418;28;20353;-75
2022/08/05 03:25:21;;;;;;;;;;;23.90;73.80;;;;;;5118454;28;19916;-75
2022/08/05 03:27:47;;;;;;;;;;;23.90;73.80;;;;;;5118428;28;20277;-76
2022/08/05 03:30:12;;;;;;;;;;;23.90;73.80;;;;;;5116917;28;19907;-75
2022/08/05 03:32:38;;;;;;;;;;;23.90;73.80;;;;;;5118305;28;19907;-73
2022/08/05 03:35:04;;;;;;;;;;;23.90;73.90;;;;;;5117129;28;19914;-76
2022/08/05 03:37:30;;;;;;;;;;;23.90;74.00;;;;;;5118651;28;19924;-75
2022/08/05 03:39:56;;;;;;;;;;;23.90;74.00;;;;;;5117977;28;19930;-75
2022/08/05 03:42:22;;;;;;;;;;;23.90;73.90;;;;;;5118222;28;19912;-75
2022/08/05 03:44:47;;;;;;;;;;;23.90;73.90;;;;;;5117918;28;20416;-75
2022/08/05 03:47:13;;;;;;;;;;;23.90;74.00;;;;;;5117886;28;19981;-74
2022/08/05 03:49:38;;;;;;;;;;;23.90;74.00;;;;;;5117754;28;20407;-75
2022/08/05 03:52:07;;;;;;;;;;;23.90;74.00;;;;;;5117777;28;19908;-75
2022/08/05 03:54:47;;;;;;;;;;;23.90;73.90;;;;;;5117627;28;19953;-74
2022/08/05 03:57:13;;;;;;;;;;;23.90;73.90;;;;;;5117988;28;19968;-75
2022/08/05 03:59:43;;;;;;;;;;;24.00;74.00;;;;;;5117472;28;20354;-75
2022/08/05 04:02:10;;;;;;;;;;;23.90;73.90;;;;;;5117165;28;19995;-74
2022/08/05 04:04:36;;;;;;;;;;;23.90;74.00;;;;;;5117356;28;20400;-74
2022/08/05 04:07:02;;;;;;;;;;;23.90;73.90;;;;;;5117613;28;19958;-74
2022/08/05 04:09:29;;;;;;;;;;;24.00;74.00;;;;;;5117422;28;19935;-75
2022/08/05 04:11:55;;;;;;;;;;;23.90;74.00;;;;;;5117370;28;20425;-75
2022/08/05 04:14:20;;;;;;;;;;;24.00;74.00;;;;;;5117266;28;19908;-75
2022/08/05 04:16:46;;;;;;;;;;;23.90;74.00;;;;;;5117054;28;19988;-75
2022/08/05 04:19:12;;;;;;;;;;;24.00;74.00;;;;;;5117580;28;19908;-75
2022/08/05 04:21:37;;;;;;;;;;;24.00;74.10;;;;;;5117334;28;20261;-75
2022/08/05 04:24:04;;;;;;;;;;;24.00;74.10;;;;;;5117379;28;20041;-75
2022/08/05 04:26:29;;;;;;;;;;;24.10;74.10;;;;;;5115741;28;19908;-81
2022/08/05 04:28:55;;;;;;;;;;;24.10;74.00;;;;;;5116962;28;19947;-74
2022/08/05 04:31:21;;;;;;;;;;;24.10;74.10;;;;;;5116504;28;19915;-75
2022/08/05 04:33:46;;;;;;;;;;;24.20;74.00;;;;;;5115171;28;20265;-75
2022/08/05 04:36:13;;;;;;;;;;;24.20;74.00;;;;;;5116927;28;20033;-75
2022/08/05 04:38:39;;;;;;;;;;;24.20;73.80;;;;;;5115590;28;20315;-75
2022/08/05 04:41:05;;;;;;;;;;;24.30;73.80;;;;;;5117819;28;19912;-74
2022/08/05 04:43:30;;;;;;;;;;;24.30;73.80;;;;;;5116531;28;19971;-74
2022/08/05 04:45:56;;;;;;;;;;;24.30;73.80;;;;;;5116714;28;20357;-75
2022/08/05 04:48:21;;;;;;;;;;;24.40;73.70;;;;;;5117031;28;20366;-75
2022/08/05 04:50:47;;;;;;;;;;;24.40;73.60;;;;;;5116932;28;19947;-75
2022/08/05 04:53:14;;;;;;;;;;;24.40;73.50;;;;;;5117152;28;19908;-76
2022/08/05 04:55:41;;;;;;;;;;;24.40;73.50;;;;;;5117257;28;19908;-74
2022/08/05 04:58:07;;;;;;;;;;;24.40;73.40;;;;;;5116807;28;19912;-77
2022/08/05 05:00:33;;;;;;;;;;;24.40;73.50;;;;;;5113673;28;19915;-81
2022/08/05 05:02:59;;;;;;;;;;;24.40;73.60;;;;;;5115987;28;20008;-80
2022/08/05 05:05:25;;;;;;;;;;;24.40;73.50;;;;;;5115191;28;19948;-77
2022/08/05 05:07:50;;;;;;;;;;;24.40;73.50;;;;;;5116173;28;19908;-73
2022/08/05 05:10:16;;;;;;;;;;;24.40;73.50;;;;;;5114352;28;19916;-80
2022/08/05 05:12:42;;;;;;;;;;;24.50;73.60;;;;;;5115758;28;20361;-77
2022/08/05 05:15:08;;;;;;;;;;;24.50;73.50;;;;;;5115492;28;19914;-77
2022/08/05 05:17:37;;;;;;;;;;;24.50;73.40;;;;;;5115576;28;19958;-76
2022/08/05 05:20:04;;;;;;;;;;;24.50;73.40;;;;;;5115532;28;20322;-78
2022/08/05 05:22:29;;;;;;;;;;;24.50;73.40;;;;;;5115647;28;19911;-76
2022/08/05 05:24:55;;;;;;;;;;;24.50;73.30;;;;;;5115861;28;20006;-75
2022/08/05 05:27:20;;;;;;;;;;;24.60;73.30;;;;;;5116385;28;19930;-73
2022/08/05 05:29:46;;;;;;;;;;;24.60;73.40;;;;;;5116760;28;19908;-78
2022/08/05 05:32:12;;;;;;;;;;;24.60;73.20;;;;;;5116221;28;19915;-73
2022/08/05 05:34:38;;;;;;;;;;;24.60;73.10;;;;;;5117565;28;19972;-74
2022/08/05 05:37:03;;;;;;;;;;;24.60;73.00;;;;;;5113533;28;19924;-78
2022/08/05 05:39:29;;;;;;;;;;;24.70;73.10;;;;;;5114461;28;19919;-80
2022/08/05 05:41:54;;;;;;;;;;;24.70;73.10;;;;;;5112778;28;19912;-73
2022/08/05 05:44:20;;;;;;;;;;;24.70;73.00;;;;;;5114408;28;19922;-75
2022/08/05 05:46:45;;;;;;;;;;;24.70;73.00;;;;;;5112709;28;20273;-77
2022/08/05 05:49:11;;;;;;;;;;;24.70;72.90;;;;;;5114068;28;19908;-79
2022/08/05 05:51:36;;;;;;;;;;;24.80;72.90;;;;;;5114757;28;20276;-76
2022/08/05 05:54:02;;;;;;;;;;;24.80;72.80;;;;;;5114771;28;19918;-75
2022/08/05 05:56:28;;;;;;;;;;;24.80;72.70;;;;;;5114078;28;20331;-78
2022/08/05 05:58:54;;;;;;;;;;;24.80;72.60;;;;;;5113745;28;20285;-77
2022/08/05 06:01:19;;;;;;;;;;;24.90;72.60;;;;;;5113111;28;19916;-74
2022/08/05 06:03:45;;;;;;;;;;;24.90;72.50;;;;;;5113949;28;19957;-73
2022/08/05 06:06:10;;;;;;;;;;;25.00;72.40;;;;;;5113377;28;19912;-74
2022/08/05 06:08:36;;;;;;;;;;;25.00;72.30;;;;;;5113760;28;19919;-75
2022/08/05 06:11:01;;;;;;;;;;;25.10;72.30;;;;;;5113625;28;20353;-75
2022/08/05 06:13:27;;;;;;;;;;;25.10;72.20;;;;;;5113839;28;19960;-78
2022/08/05 06:15:53;;;;;;;;;;;25.10;72.10;;;;;;5113595;28;19911;-74
2022/08/05 06:18:18;;;;;;;;;;;25.10;72.00;;;;;;5112251;28;19955;-75
2022/08/05 06:20:44;;;;;;;;;;;25.10;71.90;;;;;;5113578;28;19994;-76
2022/08/05 06:23:09;;;;;;;;;;;25.10;71.90;;;;;;5113114;28;20011;-78
2022/08/05 06:25:35;;;;;;;;;;;25.10;71.90;;;;;;5113031;28;20443;-80
2022/08/05 06:28:00;;;;;;;;;;;25.20;71.90;;;;;;5113280;28;19955;-75
2022/08/05 06:30:26;;;;;;;;;;;25.20;71.90;;;;;;5113589;28;20323;-75
2022/08/05 06:32:52;;;;;;;;;;;25.20;71.90;;;;;;5113569;28;20281;-76
2022/08/05 06:35:18;;;;;;;;;;;25.10;72.40;;;;;;5112996;28;19933;-76
2022/08/05 06:37:43;;;;;;;;;;;25.10;71.80;;;;;;5111627;28;19923;-73
2022/08/05 06:40:09;;;;;;;;;;;25.10;71.90;;;;;;5113867;28;19908;-75
2022/08/05 06:42:35;;;;;;;;;;;25.10;72.00;;;;;;5113799;28;19919;-75
2022/08/05 06:45:01;;;;;;;;;;;25.10;71.90;;;;;;5113049;28;19918;-76
2022/08/05 06:47:26;;;;;;;;;;;25.20;72.00;;;;;;5113957;28;19912;-76
2022/08/05 06:49:52;;;;;;;;;;;25.20;72.00;;;;;;5112965;28;19908;-77
2022/08/05 06:52:17;;;;;;;;;;;25.20;71.90;;;;;;5112597;28;19908;-78
2022/08/05 06:54:43;;;;;;;;;;;25.30;71.90;;;;;;5113475;28;20323;-77
2022/08/05 06:57:10;;;;;;;;;;;25.30;71.80;;;;;;5113653;28;19908;-77
2022/08/05 06:59:36;;;;;;;;;;;25.30;71.80;;;;;;5113524;28;19916;-78
2022/08/05 07:02:01;;;;;;;;;;;25.40;71.80;;;;;;5113439;28;19918;-73
2022/08/05 07:04:27;;;;;;;;;;;25.40;71.70;;;;;;5114032;28;20250;-77
2022/08/05 07:06:53;;;;;;;;;;;25.40;71.70;;;;;;5114039;28;20330;-71
2022/08/05 07:17:50;;;;;;;;;;;25.30;71.50;;;;;;5113402;28;20000;-77
2022/08/05 07:20:15;;;;;;;;;;;25.30;71.60;;;;;;5113757;28;19951;-73
2022/08/05 07:22:41;;;;;;;;;;;25.30;71.70;;;;;;5113760;28;19947;-75
2022/08/05 07:25:07;;;;;;;;;;;25.30;71.70;;;;;;5113553;28;19922;-74
2022/08/05 07:27:32;;;;;;;;;;;25.30;71.70;;;;;;5113348;28;19911;-77
2022/08/05 07:29:58;;;;;;;;;;;25.30;71.80;;;;;;5113396;28;20374;-74
2022/08/05 07:32:24;;;;;;;;;;;25.30;71.80;;;;;;5113422;28;20011;-76
2022/08/05 07:34:49;;;;;;;;;;;25.30;71.70;;;;;;5113660;28;20235;-73
2022/08/05 07:37:15;;;;;;;;;;;25.30;71.80;;;;;;5111965;28;19930;-77
2022/08/05 07:39:40;;;;;;;;;;;25.20;71.80;;;;;;5113542;28;19908;-77
2022/08/05 07:42:06;;;;;;;;;;;25.30;71.90;;;;;;5113505;28;19916;-76
2022/08/05 07:44:31;;;;;;;;;;;25.30;71.70;;;;;;5113708;28;19988;-73
2022/08/05 07:46:57;;;;;;;;;;;25.40;71.70;;;;;;5112182;28;19908;-77
2022/08/05 07:49:22;;;;;;;;;;;25.40;71.60;;;;;;5113161;28;19908;-77
2022/08/05 07:51:48;;;;;;;;;;;25.30;71.50;;;;;;5113560;28;19907;-74
2022/08/05 07:54:14;;;;;;;;;;;25.30;71.70;;;;;;5113472;28;19915;-77
2022/08/05 07:56:39;;;;;;;;;;;25.30;71.70;;;;;;5113682;28;19995;-76
2022/08/05 07:59:05;;;;;;;;;;;25.30;71.70;;;;;;5113439;28;19908;-79
2022/08/05 08:01:30;;;;;;;;;;;25.30;71.70;;;;;;5113075;28;20007;-74
2022/08/05 08:03:56;;;;;;;;;;;25.40;71.80;;;;;;5113034;28;20050;-76
2022/08/05 08:06:22;;;;;;;;;;;25.40;71.70;;;;;;5113662;28;20358;-78
2022/08/05 08:08:47;;;;;;;;;;;25.40;71.70;;;;;;5116539;28;19908;-74
2022/08/05 08:11:14;;;;;;;;;;;25.30;71.60;;;;;;5116861;28;20258;-77
2022/08/05 08:13:39;;;;;;;;;;;25.40;71.70;;;;;;5116827;28;20002;-76
2022/08/05 08:16:05;;;;;;;;;;;25.30;71.70;;;;;;5116626;28;19958;-76
2022/08/05 08:18:30;;;;;;;;;;;25.40;71.80;;;;;;5115049;28;19908;-77
2022/08/05 08:20:56;;;;;;;;;;;25.40;71.70;;;;;;5116567;28;19912;-75
2022/08/05 08:23:22;;;;;;;;;;;25.50;71.70;;;;;;5115423;28;19912;-75
2022/08/05 08:25:47;;;;;;;;;;;25.60;71.70;;;;;;5116509;28;19907;-75
2022/08/05 08:28:13;;;;;;;;;;;25.70;71.60;;;;;;5116532;28;20357;-76
2022/08/05 08:30:38;;;;;;;;;;;25.80;71.60;;;;;;5116374;28;19909;-75
2022/08/05 08:33:08;;;;;;;;;;;25.90;71.40;;;;;;5116299;28;20274;-75
2022/08/05 08:35:34;;;;;;;;;;;26.00;71.10;;;;;;5116273;28;19919;-76
2022/08/05 08:38:00;;;;;;;;;;;26.20;71.00;;;;;;5116393;28;19916;-76
2022/08/05 08:40:25;;;;;;;;;;;26.30;70.80;;;;;;5116197;28;19915;-78
2022/08/05 08:42:51;;;;;;;;;;;26.40;70.50;;;;;;5115930;28;19916;-73
2022/08/05 08:45:19;;;;;;;;;;;26.50;70.30;;;;;;5116017;28;20361;-77
2022/08/05 08:47:45;;;;;;;;;;;26.60;70.20;;;;;;5115848;28;19907;-78
2022/08/05 08:50:12;;;;;;;;;;;26.70;70.00;;;;;;5116730;28;20415;-77
2022/08/05 08:52:38;;;;;;;;;;;26.70;69.70;;;;;;5116301;28;19908;-78
2022/08/05 08:55:04;;;;;;;;;;;26.60;69.50;;;;;;5116038;28;19927;-79
2022/08/05 08:57:29;;;;;;;;;;;26.60;69.60;;;;;;5115851;28;19911;-74
2022/08/05 08:59:56;;;;;;;;;;;26.60;69.60;;;;;;5114621;28;19915;-74
2022/08/05 09:02:22;;;;;;;;;;;26.60;69.60;;;;;;5115637;28;19968;-76
2022/08/05 09:04:48;;;;;;;;;;;26.60;69.60;;;;;;5115693;28;20362;-75
2022/08/05 09:07:14;;;;;;;;;;;26.60;69.50;;;;;;5115985;28;19915;-77
2022/08/05 09:09:39;;;;;;;;;;;26.60;69.40;;;;;;5115709;28;19907;-74
2022/08/05 09:12:07;;;;;;;;;;;26.70;69.60;;;;;;5115468;28;20281;-75
2022/08/05 09:14:33;;;;;;;;;;;26.70;69.50;;;;;;5115553;28;20451;-73
2022/08/05 09:16:58;;;;;;;;;;;26.70;69.50;;;;;;5115344;28;19915;-78
2022/08/05 09:19:24;;;;;;;;;;;26.80;69.60;;;;;;5115183;28;19947;-74
2022/08/05 09:21:50;;;;;;;;;;;26.80;69.40;;;;;;5115404;28;19998;-76
2022/08/05 09:24:15;;;;;;;;;;;26.80;69.30;;;;;;5115573;28;19916;-74
2022/08/05 09:26:45;;;;;;;;;;;25.30;68.00;;;;;;5115769;28;19926;-76
2022/08/05 09:29:10;;;;;;;;;;;27.00;69.20;;;;;;5115257;28;19961;-74
2022/08/05 09:31:36;;;;;;;;;;;27.00;68.80;;;;;;5115284;28;19907;-77
2022/08/05 09:34:01;;;;;;;;;;;27.00;68.40;;;;;;5115328;28;19914;-75
2022/08/05 09:36:43;;;;;;;;;;;27.10;68.30;;;;;;5115359;28;19974;-77
2022/08/05 09:39:11;;;;;;;;;;;27.10;68.50;;;;;;5115244;28;20358;-77
2022/08/05 09:41:55;;;;;;;;;;;27.20;68.30;;;;;;5114781;28;19912;-73
2022/08/05 09:44:33;;;;;;;;;;;27.20;68.20;;;;;;5115183;28;20006;-76
2022/08/05 09:47:09;;;;;;;;;;;27.20;68.10;;;;;;5115095;28;19983;-77
2022/08/05 09:49:38;;;;;;;;;;;27.20;68.20;;;;;;5114877;28;19911;-72
2022/08/05 09:52:22;;;;;;;;;;;27.30;68.40;;;;;;5114689;28;19961;-74
2022/08/05 09:55:00;;;;;;;;;;;27.30;68.20;;;;;;5113867;28;19976;-77
2022/08/05 09:57:30;;;;;;;;;;;27.40;68.20;;;;;;5114515;28;19972;-78
2022/08/05 09:59:56;;;;;;;;;;;27.50;67.80;;;;;;5113308;28;20369;-76
2022/08/05 10:02:32;;;;;;;;;;;27.60;67.60;;;;;;5114652;28;19919;-75
2022/08/05 10:05:05;;;;;;;;;;;27.60;67.20;;;;;;5114781;28;20000;-78
2022/08/05 10:07:43;;;;;;;;;;;27.70;67.20;;;;;;5113357;28;20000;-75
2022/08/05 10:10:09;;;;;;;;;;;27.70;67.00;;;;;;5115059;28;19930;-79
2022/08/05 10:12:55;;;;;;;;;;;27.90;67.00;;;;;;5113119;28;19951;-76
2022/08/05 10:15:25;;;;;;;;;;;27.80;66.40;;;;;;5113423;28;19957;-76
2022/08/05 10:18:09;;;;;;;;;;;27.90;66.30;;;;;;5114464;28;20342;-77
2022/08/05 10:20:37;;;;;;;;;;;27.90;66.20;;;;;;5113151;28;19947;-76
2022/08/05 10:23:03;;;;;;;;;;;27.90;65.80;;;;;;5114416;28;19912;-78
2022/08/05 10:25:29;;;;;;;;;;;27.90;65.90;;;;;;5113941;28;19912;-75
2022/08/05 10:27:56;;;;;;;;;;;27.90;65.70;;;;;;5114029;28;19912;-74
2022/08/05 10:30:21;;;;;;;;;;;27.90;66.10;;;;;;5113460;28;20058;-74
2022/08/05 10:32:47;;;;;;;;;;;27.90;66.20;;;;;;5114417;28;20013;-75
2022/08/05 10:35:14;;;;;;;;;;;27.80;66.10;;;;;;5114280;28;19961;-77
2022/08/05 10:37:40;;;;;;;;;;;27.80;66.20;;;;;;5113924;28;19924;-74
2022/08/05 10:40:08;;;;;;;;;;;27.80;66.40;;;;;;5112516;28;19915;-72
2022/08/05 10:42:37;;;;;;;;;;;27.80;66.40;;;;;;5113967;28;20358;-74
2022/08/05 10:45:03;;;;;;;;;;;27.70;66.30;;;;;;5113103;28;20001;-74
2022/08/05 10:47:31;;;;;;;;;;;27.70;66.40;;;;;;5114566;28;20273;-76
2022/08/05 10:50:10;;;;;;;;;;;27.70;66.40;;;;;;5112660;28;19908;-76
2022/08/05 10:52:37;;;;;;;;;;;27.70;66.30;;;;;;5112533;28;19908;-74
2022/08/05 10:55:04;;;;;;;;;;;27.60;66.40;;;;;;5113996;28;19907;-76
2022/08/05 10:57:30;;;;;;;;;;;28.30;67.00;;;;;;5112480;28;19976;-73
2022/08/05 11:00:08;;;;;;;;;;;27.60;66.50;;;;;;5114447;28;20417;-74
2022/08/05 11:02:34;;;;;;;;;;;27.60;66.70;;;;;;5113433;28;19920;-74
2022/08/05 11:05:02;;;;;;;;;;;27.60;66.60;;;;;;5114051;28;20258;-74
2022/08/05 11:07:28;;;;;;;;;;;27.70;66.60;;;;;;5114785;28;19908;-75
2022/08/05 11:09:54;;;;;;;;;;;27.70;66.50;;;;;;5114781;28;19915;-75
2022/08/05 11:12:22;;;;;;;;;;;27.80;66.40;;;;;;5114317;28;19908;-75
2022/08/05 11:15:03;;;;;;;;;;;27.80;66.70;;;;;;5114075;28;19908;-75
2022/08/05 11:17:31;;;;;;;;;;;27.80;66.30;;;;;;5114355;28;19957;-74
2022/08/05 11:19:57;;;;;;;;;;;27.80;66.20;;;;;;5113975;28;19911;-74
2022/08/05 11:22:51;;;;;;;;;;;27.80;66.30;;;;;;5113752;28;19912;-74
2022/08/05 11:25:36;;;;;;;;;;;27.80;66.40;;;;;;5111923;28;19962;-75
2022/08/05 11:28:10;;;;;;;;;;;27.80;66.30;;;;;;5112920;28;20281;-74
2022/08/05 11:30:56;;;;;;;;;;;27.90;66.30;;;;;;5114592;28;19914;-74
2022/08/05 11:33:25;;;;;;;;;;;27.90;66.50;;;;;;5114131;28;19907;-76
2022/08/05 11:35:52;;;;;;;;;;;27.80;66.20;;;;;;5113977;28;19920;-75
2022/08/05 11:38:17;;;;;;;;;;;27.90;66.40;;;;;;5112655;28;20374;-75
2022/08/05 11:40:57;;;;;;;;;;;27.90;66.30;;;;;;5114013;28;19947;-73
2022/08/05 11:43:22;;;;;;;;;;;27.90;66.30;;;;;;5116624;28;20006;-75
2022/08/05 11:45:48;;;;;;;;;;;27.80;66.40;;;;;;5118083;28;20348;-73
2022/08/05 11:48:14;;;;;;;;;;;27.80;66.50;;;;;;5117716;28;19908;-74
2022/08/05 11:50:40;;;;;;;;;;;27.80;66.50;;;;;;5117894;28;20262;-73
2022/08/05 11:53:06;;;;;;;;;;;27.90;66.60;;;;;;5116439;28;20384;-73
2022/08/05 11:55:31;;;;;;;;;;;27.90;66.40;;;;;;5117628;28;19972;-74
2022/08/05 11:57:57;;;;;;;;;;;27.90;66.60;;;;;;5117725;28;19912;-73
2022/08/05 12:00:29;;;;;;;;;;;27.90;66.50;;;;;;5117973;28;20262;-73
2022/08/05 12:02:54;;;;;;;;;;;27.90;66.50;;;;;;5117068;28;19915;-73
2022/08/05 12:05:27;;;;;;;;;;;27.90;66.40;;;;;;5117516;28;19957;-74
2022/08/05 12:07:56;;;;;;;;;;;27.90;66.50;;;;;;5117506;28;19908;-74
2022/08/05 12:10:24;;;;;;;;;;;27.90;66.50;;;;;;5117394;28;19912;-74
2022/08/05 12:12:50;;;;;;;;;;;27.90;66.60;;;;;;5117877;28;20470;-75
2022/08/05 12:15:20;;;;;;;;;;;27.90;66.60;;;;;;5117293;28;19932;-73
2022/08/05 12:17:45;;;;;;;;;;;27.90;66.60;;;;;;5117197;28;19908;-74
2022/08/05 12:20:12;;;;;;;;;;;28.00;66.40;;;;;;5116836;28;19908;-74
2022/08/05 12:22:37;;;;;;;;;;;28.00;66.40;;;;;;5117158;28;20399;-75
2022/08/05 12:25:04;;;;;;;;;;;28.00;66.40;;;;;;5117561;28;19912;-75
2022/08/05 12:27:32;;;;;;;;;;;28.00;66.30;;;;;;5117517;28;19951;-75
2022/08/05 12:30:02;;;;;;;;;;;28.10;66.40;;;;;;5116947;28;19914;-73
2022/08/05 12:32:30;;;;;;;;;;;28.10;66.30;;;;;;5116788;28;20003;-76
2022/08/05 12:34:56;;;;;;;;;;;28.10;66.30;;;;;;5116946;28;19908;-74
2022/08/05 12:37:21;;;;;;;;;;;28.10;66.10;;;;;;5116633;28;19924;-75
2022/08/05 12:39:48;;;;;;;;;;;28.10;66.10;;;;;;5116604;28;19912;-75
2022/08/05 12:42:18;;;;;;;;;;;28.20;66.20;;;;;;5116433;28;20319;-74
2022/08/05 12:44:44;;;;;;;;;;;28.20;66.00;;;;;;5116591;28;20076;-75
2022/08/05 12:47:11;;;;;;;;;;;28.20;66.00;;;;;;5116761;28;20392;-74
2022/08/05 12:49:39;;;;;;;;;;;28.30;66.10;;;;;;5116723;28;19908;-74
2022/08/05 12:52:10;;;;;;;;;;;28.40;66.00;;;;;;5116665;28;19908;-78
2022/08/05 12:54:36;;;;;;;;;;;28.40;65.90;;;;;;5116404;28;19908;-74
2022/08/05 12:57:03;;;;;;;;;;;28.50;65.80;;;;;;5116542;28;19915;-74
2022/08/05 12:59:29;;;;;;;;;;;28.50;65.60;;;;;;5116229;28;19908;-75
2022/08/05 13:01:56;;;;;;;;;;;28.60;65.40;;;;;;5115968;28;20002;-74
2022/08/05 13:04:25;;;;;;;;;;;28.70;64.90;;;;;;5116396;28;19915;-75
2022/08/05 13:06:50;;;;;;;;;;;28.70;65.40;;;;;;5116504;28;19943;-75
2022/08/05 13:09:16;;;;;;;;;;;28.80;65.30;;;;;;5116688;28;19912;-74
2022/08/05 13:11:42;;;;;;;;;;;28.90;65.30;;;;;;5116314;28;19908;-74
2022/08/05 13:14:18;;;;;;;;;;;29.00;65.20;;;;;;5114883;28;19915;-74
2022/08/05 13:16:45;;;;;;;;;;;29.10;65.00;;;;;;5115981;28;19999;-74
2022/08/05 13:19:11;;;;;;;;;;;29.20;64.70;;;;;;5116052;28;19911;-74
2022/08/05 13:21:37;;;;;;;;;;;29.20;64.60;;;;;;5115634;28;19961;-73
2022/08/05 13:24:02;;;;;;;;;;;29.30;64.30;;;;;;5115752;28;19912;-73
2022/08/05 13:26:29;;;;;;;;;;;29.40;64.30;;;;;;5115930;28;19908;-73
2022/08/05 13:28:54;;;;;;;;;;;29.50;64.10;;;;;;5114341;28;19915;-75
2022/08/05 13:31:20;;;;;;;;;;;29.60;64.20;;;;;;5116147;28;19908;-73
2022/08/05 13:33:45;;;;;;;;;;;29.80;63.70;;;;;;5115958;28;19908;-74
2022/08/05 13:36:12;;;;;;;;;;;29.90;64.50;;;;;;5115689;28;19930;-74
2022/08/05 13:38:38;;;;;;;;;;;30.20;64.40;;;;;;5116039;28;19969;-74
2022/08/05 13:41:03;;;;;;;;;;;30.50;63.90;;;;;;5114477;28;20012;-74
2022/08/05 13:43:29;;;;;;;;;;;30.80;63.30;;;;;;5114192;28;19923;-74
2022/08/05 13:45:54;;;;;;;;;;;31.10;63.80;;;;;;5115627;28;19914;-74
2022/08/05 13:48:20;;;;;;;;;;;31.40;63.00;;;;;;5115164;28;19915;-75
2022/08/05 13:50:45;;;;;;;;;;;31.60;63.60;;;;;;5115074;28;19960;-74
2022/08/05 13:53:11;;;;;;;;;;;31.80;62.20;;;;;;5115162;28;19908;-74
2022/08/05 13:55:36;;;;;;;;;;;32.00;62.10;;;;;;5115308;28;19911;-74
2022/08/05 13:58:02;;;;;;;;;;;32.10;61.30;;;;;;5115091;28;19914;-75
2022/08/05 14:00:28;;;;;;;;;;;32.30;60.50;;;;;;5111703;28;19916;-75
2022/08/05 14:02:54;;;;;;;;;;;32.40;61.50;;;;;;5115006;28;19918;-74
2022/08/05 14:05:20;;;;;;;;;;;32.70;60.80;;;;;;5113712;28;19912;-76
2022/08/05 14:07:46;;;;;;;;;;;33.10;60.90;;;;;;5115218;28;19914;-73
2022/08/05 14:10:13;;;;;;;;;;;33.50;59.80;;;;;;5115194;28;19908;-75
2022/08/05 14:12:39;;;;;;;;;;;33.90;60.00;;;;;;5114712;28;19953;-71
2022/08/05 14:15:05;;;;;;;;;;;34.30;57.90;;;;;;5114963;28;19908;-75
2022/08/05 14:17:31;;;;;;;;;;;34.70;58.50;;;;;;5115032;28;19915;-76
2022/08/05 14:19:56;;;;;;;;;;;35.00;57.70;;;;;;5113561;28;20362;-75
2022/08/05 14:22:22;;;;;;;;;;;35.40;56.70;;;;;;5114574;28;19911;-75
2022/08/05 14:24:48;;;;;;;;;;;35.80;57.20;;;;;;5114807;28;19998;-75